Time;durP1;ratioP1;P1;durP2;ratioP2;P2;SDS_P1;SDS_P2;PMS_P1;PMS_P2;Temp;Humidity;BMP_temperature;BMP_pressure;BME280_temperature;BME280_humidity;BME280_pressure;Samples;Min_cycle;Max_cycle;Signal;HPM_P1;HPM_P2
2023/09/30 00:02:53;;;;;;;6.53;4.20;;;20.60;1.00;;;;;;8264359;28;20187;-68
2023/09/30 00:06:55;;;;;;;10.77;4.20;;;20.60;1.00;;;;;;8248575;28;20208;-68
2023/09/30 00:10:56;;;;;;;9.97;4.30;;;20.60;1.00;;;;;;8267015;28;20215;-69
2023/09/30 00:14:57;;;;;;;5.90;4.03;;;20.70;1.00;;;;;;8262031;28;20511;-69
2023/09/30 00:19:04;;;;;;;7.47;4.43;;;20.60;1.00;;;;;;8266489;28;20202;-69
2023/09/30 00:23:06;;;;;;;7.50;4.10;;;20.70;1.00;;;;;;8251479;28;20226;-69
2023/09/30 00:27:07;;;;;;;5.60;3.57;;;20.60;1.00;;;;;;8252114;28;20223;-69
2023/09/30 00:31:11;;;;;;;7.30;4.17;;;20.60;1.00;;;;;;8269244;28;20182;-68
2023/09/30 00:35:12;;;;;;;6.43;4.27;;;20.50;1.00;;;;;;8260674;28;20282;-70
2023/09/30 00:39:13;;;;;;;7.27;4.40;;;20.40;1.00;;;;;;8252586;28;20461;-68
2023/09/30 00:43:20;;;;;;;6.97;3.80;;;20.40;1.00;;;;;;8246417;28;20346;-68
2023/09/30 00:47:22;;;;;;;8.53;4.53;;;20.30;1.00;;;;;;8260514;28;20192;-68
2023/09/30 00:51:23;;;;;;;6.80;3.77;;;20.20;1.00;;;;;;8263816;28;20178;-69
2023/09/30 00:55:24;;;;;;;7.27;4.10;;;20.20;1.00;;;;;;8263829;28;20199;-69
2023/09/30 00:59:26;;;;;;;8.07;4.03;;;20.10;1.00;;;;;;8258334;28;20187;-70
2023/09/30 01:03:29;;;;;;;7.50;4.03;;;20.10;1.00;;;;;;8261567;28;20221;-69
2023/09/30 01:07:30;;;;;;;8.27;4.47;;;20.00;1.00;;;;;;8262945;28;20246;-69
2023/09/30 01:11:31;;;;;;;7.90;4.63;;;19.90;1.00;;;;;;8251537;28;20194;-68
2023/09/30 01:15:32;;;;;;;8.73;4.80;;;19.70;1.00;;;;;;8252277;28;20191;-69
2023/09/30 01:19:33;;;;;;;7.13;4.40;;;19.70;1.00;;;;;;8266823;28;20196;-68
2023/09/30 01:23:38;;;;;;;9.93;4.27;;;19.60;1.00;;;;;;8264831;28;20187;-68
2023/09/30 01:27:39;;;;;;;6.67;3.97;;;19.60;1.00;;;;;;8247847;28;20643;-69
2023/09/30 01:31:40;;;;;;;6.40;4.37;;;19.50;1.00;;;;;;8260240;28;20270;-69
2023/09/30 01:35:41;;;;;;;6.77;4.43;;;19.40;1.00;;;;;;8266752;28;20187;-69
2023/09/30 01:39:43;;;;;;;7.53;4.03;;;19.40;1.00;;;;;;8261814;28;20199;-69
2023/09/30 01:43:44;;;;;;;8.67;4.90;;;19.20;1.00;;;;;;8257807;28;20194;-69
2023/09/30 01:47:47;;;;;;;9.37;4.43;;;19.20;1.00;;;;;;8248540;28;20217;-69
2023/09/30 01:51:47;;;;;;;9.47;4.80;;;19.10;1.00;;;;;;8245543;28;20188;-69
2023/09/30 01:55:48;;;;;;;9.23;4.83;;;19.10;1.00;;;;;;8269309;28;20191;-68
2023/09/30 01:59:49;;;;;;;9.13;4.47;;;19.00;1.00;;;;;;8264512;28;20260;-69
2023/09/30 02:03:51;;;;;;;9.30;4.83;;;18.90;1.00;;;;;;8251751;28;20201;-68
2023/09/30 02:07:52;;;;;;;7.07;4.40;;;18.90;1.00;;;;;;8265401;28;20223;-69
2023/09/30 02:11:55;;;;;;;6.53;4.40;;;18.90;1.00;;;;;;8255731;28;20183;-71
2023/09/30 02:15:56;;;;;;;7.07;4.30;;;18.70;1.00;;;;;;8253583;28;20223;-68
2023/09/30 02:19:57;;;;;;;9.83;5.00;;;18.60;1.00;;;;;;8264588;28;20187;-69
2023/09/30 02:23:58;;;;;;;9.87;5.13;;;18.50;1.00;;;;;;8252628;28;20192;-69
2023/09/30 02:27:58;;;;;;;8.97;4.73;;;18.40;10.60;;;;;;8256529;28;20225;-67
2023/09/30 02:32:00;;;;;;;7.67;4.60;;;18.30;36.70;;;;;;8265944;28;20523;-68
2023/09/30 02:36:05;;;;;;;8.00;4.63;;;18.30;60.60;;;;;;8253825;28;20187;-68
2023/09/30 02:40:10;;;;;;;7.50;4.80;;;18.40;71.30;;;;;;8267838;28;20191;-69
2023/09/30 02:44:11;;;;;;;8.30;5.40;;;18.40;70.50;;;;;;8248743;28;20207;-68
2023/09/30 02:48:13;;;;;;;8.40;4.83;;;18.40;70.70;;;;;;8257423;28;20254;-69
2023/09/30 02:52:14;;;;;;;8.43;4.93;;;18.40;88.30;;;;;;8254484;28;20199;-70
2023/09/30 02:56:18;;;;;;;9.37;4.70;;;18.30;98.60;;;;;;8257275;28;20219;-69
2023/09/30 03:00:25;;;;;;;10.30;4.90;;;18.40;99.90;;;;;;8256366;28;20191;-70
2023/09/30 03:04:28;;;;;;;6.57;4.43;;;18.30;99.90;;;;;;8266660;28;20191;-68
2023/09/30 03:08:28;;;;;;;6.70;4.50;;;18.30;99.90;;;;;;8255591;28;20192;-67
2023/09/30 03:12:31;;;;;;;7.63;4.37;;;18.40;99.90;;;;;;8267444;28;20271;-69
2023/09/30 03:16:32;;;;;;;6.90;4.30;;;18.40;99.90;;;;;;8265400;28;20505;-67
2023/09/30 03:20:32;;;;;;;6.47;4.33;;;18.40;99.90;;;;;;8256674;28;20242;-69
2023/09/30 03:24:35;;;;;;;9.13;4.70;;;18.40;99.90;;;;;;8258271;28;20214;-69
2023/09/30 03:28:39;;;;;;;9.20;4.73;;;18.30;99.90;;;;;;8267046;28;20274;-70
2023/09/30 03:32:44;;;;;;;7.93;4.33;;;18.30;99.90;;;;;;8261205;28;20603;-67
2023/09/30 03:36:45;;;;;;;10.73;4.97;;;18.30;99.90;;;;;;8266675;28;20198;-69
2023/09/30 03:40:48;;;;;;;9.43;5.43;;;18.30;99.90;;;;;;8269188;28;20660;-70
2023/09/30 03:44:48;;;;;;;8.50;4.73;;;18.20;99.90;;;;;;8248091;28;20676;-68
2023/09/30 03:48:51;;;;;;;8.03;5.03;;;18.20;99.90;;;;;;8254271;28;20210;-67
2023/09/30 03:53:02;;;;;;;7.80;4.53;;;18.20;99.90;;;;;;8248910;28;20221;-66
2023/09/30 03:57:04;;;;;;;11.07;2.63;;;18.10;99.90;;;;;;8266028;28;20199;-67
2023/09/30 04:01:05;;;;;;;3.67;1.37;;;18.00;99.90;;;;;;8251859;28;20459;-66
2023/09/30 04:05:07;;;;;;;4.77;1.40;;;17.70;99.90;;;;;;8253118;28;20207;-66
2023/09/30 04:09:11;;;;;;;2.27;1.20;;;17.40;1.00;;;;;;8250956;28;20195;-66
2023/09/30 04:13:12;;;;;;;4.10;0.97;;;17.00;1.00;;;;;;8251539;28;20191;-66
2023/09/30 04:17:12;;;;;;;2.53;1.13;;;16.70;1.00;;;;;;8262710;28;20218;-67
2023/09/30 04:21:13;;;;;;;4.30;1.20;;;16.40;1.00;;;;;;8253451;28;20219;-68
2023/09/30 04:25:16;;;;;;;3.77;1.00;;;16.30;50.80;;;;;;8262209;28;20211;-68
2023/09/30 04:29:18;;;;;;;2.13;1.30;;;16.20;99.90;;;;;;8263047;28;20207;-67
2023/09/30 04:33:20;;;;;;;2.23;1.50;;;16.10;1.00;;;;;;8260582;28;20231;-65
2023/09/30 04:37:23;;;;;;;3.63;1.03;;;16.00;1.00;;;;;;8266830;28;20195;-67
2023/09/30 04:41:26;;;;;;;2.73;1.30;;;15.90;1.00;;;;;;8260584;28;20401;-69
2023/09/30 04:45:27;;;;;;;3.63;1.37;;;15.90;1.00;;;;;;8249567;28;20208;-67
2023/09/30 04:49:29;;;;;;;3.27;1.40;;;15.80;99.90;;;;;;8246449;28;20270;-68
2023/09/30 04:53:33;;;;;;;4.53;1.47;;;15.70;1.00;;;;;;8266614;28;20199;-68
2023/09/30 04:57:34;;;;;;;4.03;1.63;;;15.60;1.00;;;;;;8260984;28;20187;-65
2023/09/30 05:01:35;;;;;;;3.27;1.67;;;15.60;1.00;;;;;;8257423;28;20184;-67
2023/09/30 05:05:36;;;;;;;4.57;1.40;;;15.50;99.90;;;;;;8242646;28;20305;-64
2023/09/30 05:09:41;;;;;;;4.13;1.70;;;15.30;1.00;;;;;;8254494;28;20526;-69
2023/09/30 05:13:43;;;;;;;3.40;1.50;;;15.20;99.90;;;;;;8253193;28;20552;-69
2023/09/30 05:17:45;;;;;;;2.97;1.50;;;15.00;99.90;;;;;;8266021;28;20442;-70
2023/09/30 05:21:47;;;;;;;3.97;1.70;;;14.90;99.90;;;;;;8245551;28;20187;-72
2023/09/30 05:25:48;;;;;;;5.40;1.70;;;14.90;99.90;;;;;;8259912;28;20229;-71
2023/09/30 05:29:49;;;;;;;3.13;1.60;;;14.90;99.90;;;;;;8254189;28;20199;-69
2023/09/30 05:33:55;;;;;;;4.57;1.60;;;14.90;99.90;;;;;;8247236;28;20201;-70
2023/09/30 05:37:55;;;;;;;3.33;1.90;;;14.70;99.90;;;;;;8265391;28;20186;-68
2023/09/30 05:41:56;;;;;;;5.03;2.40;;;14.70;99.90;;;;;;8268818;28;20712;-70
2023/09/30 05:45:58;;;;;;;9.17;2.80;;;14.60;99.90;;;;;;8254334;28;20431;-71
2023/09/30 05:49:59;;;;;;;7.00;2.30;;;14.60;99.90;;;;;;8249049;28;20187;-70
2023/09/30 05:54:00;;;;;;;5.07;2.60;;;14.60;99.90;;;;;;8264647;28;20188;-71
2023/09/30 05:58:01;;;;;;;5.87;2.83;;;14.60;1.00;;;;;;8252240;28;20222;-68
2023/09/30 06:02:02;;;;;;;6.93;2.90;;;14.60;1.00;;;;;;8252214;28;20198;-68
2023/09/30 06:06:09;;;;;;;7.93;2.80;;;14.60;1.00;;;;;;8254796;28;20341;-72
2023/09/30 06:10:15;;;;;;;5.73;2.47;;;14.60;99.90;;;;;;8262664;28;20204;-71
2023/09/30 06:14:16;;;;;;;7.33;2.80;;;14.50;24.00;;;;;;8263971;28;20187;-71
2023/09/30 06:18:17;;;;;;;5.93;2.63;;;14.50;99.90;;;;;;8259817;28;20195;-72
2023/09/30 06:22:18;;;;;;;6.57;2.53;;;14.40;1.00;;;;;;8263529;28;20677;-70
2023/09/30 06:26:20;;;;;;;9.07;3.07;;;14.40;99.90;;;;;;8260848;28;20675;-69
2023/09/30 07:59:33;;;;;;;11.23;3.03;;;15.00;1.00;;;;;;8264459;28;20186;-70
2023/09/30 08:03:34;;;;;;;9.47;2.93;;;15.00;1.00;;;;;;8264075;28;20505;-70
2023/09/30 08:07:38;;;;;;;12.50;3.03;;;15.30;1.00;;;;;;8262906;28;20234;-67
2023/09/30 08:11:39;;;;;;;13.07;2.70;;;15.60;1.00;;;;;;8257328;28;20191;-69
2023/09/30 08:15:40;;;;;;;14.30;2.90;;;15.80;1.00;;;;;;8267397;28;20232;-66
2023/09/30 08:19:44;;;;;;;15.47;3.63;;;15.90;1.00;;;;;;8257890;28;20777;-71
2023/09/30 08:23:44;;;;;;;10.93;2.97;;;16.10;1.00;;;;;;8253694;28;20187;-71
2023/09/30 08:27:49;;;;;;;12.63;3.23;;;16.20;1.00;;;;;;8264968;28;20292;-69
2023/09/30 08:31:51;;;;;;;12.83;3.90;;;16.30;1.00;;;;;;8264199;28;20208;-70
2023/09/30 08:35:52;;;;;;;14.17;3.70;;;16.10;1.00;;;;;;8266532;28;20188;-70
2023/09/30 08:39:53;;;;;;;12.77;3.70;;;16.00;1.00;;;;;;8260565;28;20463;-70
2023/09/30 08:43:57;;;;;;;10.07;2.87;;;16.20;1.00;;;;;;8267909;28;20492;-70
2023/09/30 08:48:04;;;;;;;7.63;2.43;;;16.30;1.00;;;;;;8271666;28;20212;-69
2023/09/30 08:52:06;;;;;;;10.17;2.70;;;16.20;1.00;;;;;;8269885;28;20272;-70
2023/09/30 08:56:10;;;;;;;8.80;2.60;;;16.50;1.00;;;;;;8256923;28;20562;-72
2023/09/30 09:00:14;;;;;;;9.33;2.87;;;16.80;1.00;;;;;;8289241;28;20187;-67
2023/09/30 09:04:15;;;;;;;12.80;2.77;;;16.90;1.00;;;;;;8256491;28;20512;-68
2023/09/30 09:08:16;;;;;;;8.47;2.63;;;16.80;1.00;;;;;;8256852;28;20279;-71
2023/09/30 09:12:21;;;;;;;9.00;2.33;;;16.60;1.00;;;;;;8250098;28;20242;-73
2023/09/30 09:16:23;;;;;;;7.63;2.93;;;16.60;1.00;;;;;;8248870;28;20196;-72
2023/09/30 09:24:33;;;;;;;9.13;2.23;;;16.60;1.00;;;;;;8364468;28;20290;-65
2023/09/30 09:28:39;;;;;;;10.00;2.67;;;16.60;1.00;;;;;;8357276;28;20185;-72
2023/09/30 09:32:50;;;;;;;9.40;2.93;;;16.50;1.00;;;;;;8345660;28;20208;-69
2023/09/30 09:36:52;;;;;;;10.27;2.63;;;16.40;1.00;;;;;;8368921;28;20177;-72
2023/09/30 09:40:59;;;;;;;7.73;2.67;;;16.40;1.00;;;;;;8359416;28;20269;-72
2023/09/30 09:45:03;;;;;;;9.00;2.43;;;16.50;1.00;;;;;;8377412;28;20248;-71
2023/09/30 09:49:04;;;;;;;8.27;2.43;;;16.60;1.00;;;;;;8348585;28;20240;-73
2023/09/30 09:53:05;;;;;;;11.13;2.90;;;16.70;1.00;;;;;;8372470;28;20272;-67
2023/09/30 09:57:09;;;;;;;9.03;2.73;;;17.00;1.00;;;;;;8359818;28;20185;-71
2023/09/30 10:01:10;;;;;;;13.17;2.57;;;17.70;1.00;;;;;;8356131;28;20220;-69
2023/09/30 10:05:13;;;;;;;10.00;3.10;;;17.80;1.00;;;;;;8354401;28;20206;-66
2023/09/30 10:09:17;;;;;;;9.27;3.00;;;17.90;1.00;;;;;;8381726;28;20575;-71
2023/09/30 10:14:00;;;;;;;6.60;2.47;;;17.90;1.00;;;;;;8363620;28;20192;-68
2023/09/30 10:18:09;;;;;;;9.63;2.83;;;17.50;1.00;;;;;;8359926;28;20294;-71
2023/09/30 10:22:24;;;;;;;11.57;2.87;;;17.30;1.00;;;;;;8366437;28;20285;-65
2023/09/30 10:26:25;;;;;;;7.13;2.80;;;17.10;1.00;;;;;;8339220;28;20198;-71
2023/09/30 10:30:28;;;;;;;9.20;3.90;;;17.10;1.00;;;;;;8350855;28;20181;-69
2023/09/30 10:34:29;;;;;;;7.93;2.73;;;17.40;1.00;;;;;;8364381;28;20193;-71
2023/09/30 10:38:33;;;;;;;12.13;3.30;;;17.70;1.00;;;;;;8354281;28;20255;-71
2023/09/30 10:42:51;;;;;;;6.53;2.77;;;18.00;1.00;;;;;;8355372;28;20212;-70
2023/09/30 10:46:54;;;;;;;8.67;3.27;;;17.90;1.00;;;;;;8368421;28;20209;-70
2023/09/30 10:51:10;;;;;;;10.20;3.07;;;17.60;1.00;;;;;;8345868;28;20195;-66
2023/09/30 10:55:20;;;;;;;10.17;2.57;;;17.70;1.00;;;;;;8358283;28;20186;-69
2023/09/30 10:59:27;;;;;;;8.40;2.53;;;17.90;1.00;;;;;;8352807;28;20170;-65
2023/09/30 11:03:28;;;;;;;7.13;2.17;;;18.00;1.00;;;;;;8352468;28;20181;-69
2023/09/30 11:07:39;;;;;;;10.33;2.70;;;17.70;1.00;;;;;;8352852;28;20250;-70
2023/09/30 11:11:49;;;;;;;11.47;3.07;;;17.60;1.00;;;;;;8359133;28;20234;-69
2023/09/30 11:16:02;;;;;;;9.23;2.43;;;17.20;1.00;;;;;;8354904;28;20190;-68
2023/09/30 11:20:06;;;;;;;8.63;2.77;;;17.00;1.00;;;;;;8348350;28;20201;-65
2023/09/30 11:24:10;;;;;;;7.40;1.97;;;17.00;1.00;;;;;;8293470;28;20357;-72
2023/09/30 11:28:18;;;;;;;10.80;2.73;;;17.40;1.00;;;;;;8291790;28;20270;-71
2023/09/30 11:32:28;;;;;;;8.43;2.30;;;17.70;1.00;;;;;;8281959;28;20198;-70
2023/09/30 11:36:33;;;;;;;6.63;2.23;;;18.10;1.00;;;;;;8289011;28;20194;-69
2023/09/30 11:40:36;;;;;;;9.07;3.03;;;18.10;1.00;;;;;;8287891;28;20288;-73
2023/09/30 11:44:46;;;;;;;9.73;2.30;;;18.20;1.00;;;;;;8293650;28;20187;-71
2023/09/30 11:49:01;;;;;;;7.27;2.30;;;18.60;1.00;;;;;;8284806;28;20766;-72
2023/09/30 11:53:16;;;;;;;9.20;2.40;;;18.60;1.00;;;;;;8290822;28;20447;-67
2023/09/30 11:57:18;;;;;;;7.27;2.60;;;18.20;1.00;;;;;;8292423;28;20218;-70
2023/09/30 12:01:19;;;;;;;7.80;2.50;;;18.10;1.00;;;;;;8352304;28;20224;-72
2023/09/30 12:05:22;;;;;;;9.90;2.63;;;18.40;1.00;;;;;;8364457;28;20197;-71
2023/09/30 12:09:26;;;;;;;10.93;2.73;;;18.60;1.00;;;;;;8345638;28;20227;-71
2023/09/30 12:13:31;;;;;;;9.23;2.60;;;18.90;1.00;;;;;;8351303;28;20180;-71
2023/09/30 12:17:34;;;;;;;6.13;2.03;;;19.10;1.00;;;;;;8377838;28;20177;-72
2023/09/30 12:21:36;;;;;;;8.37;2.67;;;18.90;1.00;;;;;;8367621;28;20232;-73
2023/09/30 12:25:37;;;;;;;7.07;2.33;;;18.60;1.00;;;;;;8348617;28;20204;-69
2023/09/30 12:29:38;;;;;;;11.07;2.60;;;18.10;1.00;;;;;;8358895;28;20191;-70
2023/09/30 12:33:40;;;;;;;8.23;2.00;;;18.30;1.00;;;;;;8345748;28;20249;-64
2023/09/30 12:37:45;;;;;;;9.53;2.77;;;18.70;1.00;;;;;;8335288;28;20178;-66
2023/09/30 12:41:46;;;;;;;7.10;2.00;;;18.60;1.00;;;;;;8345176;28;20185;-65
2023/09/30 12:45:47;;;;;;;6.37;1.80;;;18.50;1.00;;;;;;8357022;28;20209;-64
2023/09/30 12:49:48;;;;;;;7.17;2.17;;;18.50;1.00;;;;;;8357370;28;20200;-68
2023/09/30 12:53:51;;;;;;;5.80;1.83;;;18.90;1.00;;;;;;8359433;28;20177;-70
2023/09/30 12:57:51;;;;;;;8.80;2.20;;;19.10;1.00;;;;;;8357161;28;20257;-69
2023/09/30 13:01:52;;;;;;;8.70;2.07;;;19.10;1.00;;;;;;8362864;28;20181;-68
2023/09/30 13:05:54;;;;;;;6.63;2.00;;;18.80;1.00;;;;;;8351423;28;20205;-71
2023/09/30 13:09:56;;;;;;;6.43;2.20;;;18.20;1.00;;;;;;8360616;28;20184;-69
2023/09/30 13:13:58;;;;;;;10.37;2.27;;;18.20;1.00;;;;;;8365377;28;20429;-65
2023/09/30 13:18:02;;;;;;;5.90;1.80;;;18.20;1.00;;;;;;8360436;28;20207;-64
2023/09/30 13:22:03;;;;;;;8.27;2.23;;;18.30;1.00;;;;;;8349495;28;20225;-67
2023/09/30 13:26:03;;;;;;;8.40;1.87;;;18.00;1.00;;;;;;8349590;28;20212;-67
2023/09/30 13:30:05;;;;;;;7.00;1.97;;;17.70;1.00;;;;;;8349129;28;20178;-68
2023/09/30 13:34:06;;;;;;;5.30;1.90;;;17.40;1.00;;;;;;8345944;28;20196;-71
2023/09/30 13:38:10;;;;;;;8.17;1.97;;;17.30;1.00;;;;;;8358860;28;20188;-63
2023/09/30 13:42:12;;;;;;;6.70;2.17;;;17.20;1.00;;;;;;8350433;28;20281;-67
2023/09/30 13:46:13;;;;;;;11.67;2.53;;;17.10;1.00;;;;;;8343797;28;20198;-68
2023/09/30 13:50:14;;;;;;;7.73;2.03;;;16.90;1.00;;;;;;8360221;28;20184;-67
2023/09/30 13:54:16;;;;;;;7.97;2.57;;;16.80;1.00;;;;;;8353058;28;20286;-69
2023/09/30 13:58:17;;;;;;;7.63;2.33;;;16.80;1.00;;;;;;8355085;28;20224;-70
2023/09/30 14:02:18;;;;;;;9.20;2.20;;;16.90;1.00;;;;;;8356890;28;20189;-69
2023/09/30 14:06:18;;;;;;;8.20;2.60;;;17.10;1.00;;;;;;8364562;28;20202;-69
2023/09/30 14:10:20;;;;;;;7.60;2.43;;;17.30;1.00;;;;;;8366543;28;20194;-70
2023/09/30 14:14:21;;;;;;;8.67;2.33;;;17.60;1.00;;;;;;8370505;28;20173;-66
2023/09/30 14:18:22;;;;;;;6.60;2.30;;;17.70;1.00;;;;;;8341713;28;20197;-69
2023/09/30 14:22:23;;;;;;;6.03;1.73;;;18.00;1.00;;;;;;8360442;28;20214;-71
2023/09/30 14:26:24;;;;;;;8.90;2.00;;;18.10;1.00;;;;;;8344206;28;20215;-70
2023/09/30 14:30:26;;;;;;;7.47;2.00;;;18.20;1.00;;;;;;8354854;28;20177;-67
2023/09/30 14:34:33;;;;;;;4.67;1.50;;;18.30;1.00;;;;;;8368143;28;20182;-69
2023/09/30 14:38:33;;;;;;;6.87;1.73;;;18.30;1.00;;;;;;8370899;28;20181;-70
2023/09/30 14:42:35;;;;;;;4.80;1.63;;;18.50;1.00;;;;;;8352218;28;20227;-69
2023/09/30 14:46:37;;;;;;;9.37;2.43;;;18.60;1.00;;;;;;8363071;28;20271;-70
2023/09/30 14:50:49;;;;;;;6.83;2.10;;;18.60;99.90;;;;;;8348371;28;20173;-68
2023/09/30 14:54:50;;;;;;;5.67;1.93;;;18.30;99.90;;;;;;8367270;28;20256;-70
2023/09/30 14:58:55;;;;;;;5.27;1.73;;;17.90;99.90;;;;;;8345609;28;20407;-69
2023/09/30 15:02:56;;;;;;;6.70;2.10;;;17.60;1.00;;;;;;8345752;28;20196;-70
2023/09/30 15:06:56;;;;;;;8.70;3.30;;;17.40;1.00;;;;;;8362088;28;20280;-69
2023/09/30 15:10:59;;;;;;;9.70;2.33;;;17.20;1.00;;;;;;8350508;28;20182;-69
2023/09/30 15:15:00;;;;;;;6.37;2.30;;;17.10;1.00;;;;;;8348622;28;20470;-69
2023/09/30 15:19:02;;;;;;;7.77;1.93;;;16.90;1.00;;;;;;8351962;28;20185;-71
2023/09/30 15:23:04;;;;;;;5.73;1.60;;;16.80;1.00;;;;;;8356944;28;20213;-71
2023/09/30 15:27:05;;;;;;;5.87;1.90;;;16.70;1.00;;;;;;8357689;28;20205;-71
2023/09/30 15:31:06;;;;;;;5.50;1.80;;;16.60;1.00;;;;;;8345138;28;20239;-69
2023/09/30 15:35:08;;;;;;;6.30;1.67;;;16.60;1.00;;;;;;8347803;28;20189;-70
2023/09/30 15:39:14;;;;;;;8.63;1.77;;;16.60;1.00;;;;;;8362818;28;20193;-70
2023/09/30 15:43:15;;;;;;;8.50;2.10;;;16.60;1.00;;;;;;8377979;28;20178;-70
2023/09/30 15:47:19;;;;;;;6.13;1.57;;;16.60;1.00;;;;;;8349764;28;20320;-69
2023/09/30 15:51:20;;;;;;;6.57;1.83;;;16.60;1.00;;;;;;8348784;28;20178;-68
2023/09/30 15:55:24;;;;;;;6.13;1.87;;;16.50;1.00;;;;;;8366434;28;20207;-70
2023/09/30 15:59:25;;;;;;;6.83;1.90;;;16.40;1.00;;;;;;8351188;28;20242;-70
2023/09/30 16:03:26;;;;;;;5.50;1.50;;;16.20;1.00;;;;;;8349720;28;20181;-69
2023/09/30 16:07:30;;;;;;;3.07;1.20;;;16.10;1.00;;;;;;8357266;28;20215;-68
2023/09/30 16:11:48;;;;;;;3.40;1.37;;;16.00;1.00;;;;;;8360838;28;20177;-70
2023/09/30 16:15:50;;;;;;;4.13;1.17;;;15.80;1.00;;;;;;8365477;28;20173;-69
2023/09/30 16:19:52;;;;;;;3.90;1.90;;;15.50;1.00;;;;;;8355550;28;20197;-69
2023/09/30 16:23:53;;;;;;;5.03;1.90;;;15.20;1.00;;;;;;8358293;28;20197;-69
2023/09/30 16:27:54;;;;;;;4.73;1.50;;;14.90;1.00;;;;;;8353593;28;20228;-70
2023/09/30 16:31:55;;;;;;;4.37;1.50;;;14.60;1.00;;;;;;8335468;28;20212;-71
2023/09/30 16:35:56;;;;;;;3.70;1.50;;;14.30;1.00;;;;;;8338734;28;20326;-71
2023/09/30 16:39:57;;;;;;;4.60;1.27;;;14.00;1.00;;;;;;8336124;28;20212;-71
2023/09/30 16:43:58;;;;;;;4.37;1.50;;;13.70;1.00;;;;;;8353717;28;20214;-71
2023/09/30 16:47:59;;;;;;;2.80;1.17;;;13.50;1.00;;;;;;8347081;28;20201;-71
2023/09/30 16:52:02;;;;;;;4.00;1.43;;;13.20;1.00;;;;;;8364493;28;20197;-69
2023/09/30 16:56:05;;;;;;;3.20;1.57;;;13.00;1.00;;;;;;8367163;28;20300;-69
2023/09/30 17:00:06;;;;;;;4.63;1.90;;;12.80;1.00;;;;;;8334202;28;20185;-66
2023/09/30 17:04:07;;;;;;;4.03;1.57;;;12.60;1.00;;;;;;8349973;28;20445;-68
2023/09/30 17:08:08;;;;;;;3.43;1.50;;;12.40;1.00;;;;;;8354735;28;20220;-66
2023/09/30 17:12:10;;;;;;;3.20;1.10;;;12.20;1.00;;;;;;8350832;28;20188;-67
2023/09/30 17:16:18;;;;;;;3.13;1.50;;;12.10;1.00;;;;;;8350390;28;20280;-66
2023/09/30 17:20:19;;;;;;;4.03;1.33;;;11.90;1.00;;;;;;8354741;28;20208;-64
2023/09/30 17:24:21;;;;;;;3.47;1.40;;;11.70;1.00;;;;;;8357618;28;20208;-63
2023/09/30 17:28:22;;;;;;;3.97;1.50;;;11.60;1.00;;;;;;8344598;28;20209;-64
2023/09/30 17:32:24;;;;;;;3.67;1.57;;;11.50;1.00;;;;;;8341251;28;20178;-66
2023/09/30 17:36:25;;;;;;;2.13;1.30;;;11.40;1.00;;;;;;8342449;28;20177;-64
2023/09/30 17:40:28;;;;;;;4.20;1.60;;;11.30;1.00;;;;;;8351719;28;20185;-70
2023/09/30 17:44:31;;;;;;;4.80;1.60;;;11.20;1.00;;;;;;8379164;28;20192;-71
2023/09/30 17:48:33;;;;;;;4.00;1.77;;;11.10;1.00;;;;;;8399402;28;20266;-70
2023/09/30 17:52:34;;;;;;;4.83;1.40;;;11.10;1.00;;;;;;8399718;28;20181;-71
2023/09/30 17:56:37;;;;;;;6.40;2.50;;;11.00;8.70;;;;;;8403414;28;20168;-71
2023/09/30 18:00:40;;;;;;;1.63;1.13;;;10.90;26.90;;;;;;8390592;28;20351;-71
2023/09/30 18:05:00;;;;;;;4.60;1.70;;;10.90;40.30;;;;;;8411752;28;20204;-69
2023/09/30 18:09:03;;;;;;;3.60;1.70;;;10.90;58.40;;;;;;8392390;28;20208;-72
2023/09/30 18:13:03;;;;;;;3.97;1.70;;;11.00;58.80;;;;;;8399299;28;20525;-70
2023/09/30 18:17:09;;;;;;;3.73;1.77;;;11.00;42.80;;;;;;8369198;28;20214;-69
2023/09/30 18:21:12;;;;;;;3.23;1.73;;;11.10;21.70;;;;;;8388932;28;20198;-71
2023/09/30 18:25:22;;;;;;;4.27;2.30;;;11.00;11.40;;;;;;8387432;28;20223;-70
2023/09/30 18:29:28;;;;;;;3.40;1.80;;;10.90;8.40;;;;;;8382117;28;20190;-69
2023/09/30 18:33:31;;;;;;;5.37;2.27;;;10.80;10.20;;;;;;8388101;28;20177;-69
2023/09/30 18:37:33;;;;;;;5.30;2.30;;;10.70;13.90;;;;;;8385522;28;20181;-70
2023/09/30 18:41:36;;;;;;;3.67;2.03;;;10.60;16.30;;;;;;8394132;28;20186;-70
2023/09/30 18:45:45;;;;;;;5.53;2.03;;;10.50;14.80;;;;;;8385361;28;20209;-72
2023/09/30 18:49:49;;;;;;;6.00;1.70;;;10.40;18.40;;;;;;8384276;28;20183;-71
2023/09/30 18:53:52;;;;;;;4.97;2.07;;;10.30;32.50;;;;;;8406333;28;20204;-71
2023/09/30 18:57:59;;;;;;;6.57;2.40;;;10.30;66.60;;;;;;8396038;28;20187;-70
2023/09/30 19:02:00;;;;;;;6.47;2.90;;;10.30;99.90;;;;;;8372338;28;20209;-67
2023/09/30 19:06:01;;;;;;;6.90;2.83;;;10.40;99.90;;;;;;8347839;28;20210;-67
2023/09/30 19:10:02;;;;;;;5.03;2.60;;;10.50;99.90;;;;;;8347625;28;20192;-64
2023/09/30 19:14:07;;;;;;;10.63;3.40;;;10.50;99.90;;;;;;8350591;28;20247;-65
2023/09/30 19:18:08;;;;;;;7.30;3.57;;;10.60;99.90;;;;;;8362183;28;20190;-65
2023/09/30 19:22:08;;;;;;;10.73;3.60;;;10.70;99.90;;;;;;8360499;28;20227;-65
2023/09/30 19:26:14;;;;;;;9.90;3.53;;;10.80;92.90;;;;;;8346103;28;20225;-65
2023/09/30 19:30:15;;;;;;;11.27;4.23;;;10.90;45.50;;;;;;8343153;28;20315;-67
2023/09/30 19:34:15;;;;;;;10.20;4.40;;;10.90;25.10;;;;;;8347171;28;20275;-67
2023/09/30 19:38:17;;;;;;;6.33;3.30;;;11.00;8.80;;;;;;8359966;28;20214;-66
2023/09/30 19:42:18;;;;;;;9.17;4.17;;;10.90;1.00;;;;;;8348023;28;20201;-66
2023/09/30 19:46:19;;;;;;;12.80;4.93;;;11.00;1.00;;;;;;8340775;28;20223;-66
2023/09/30 19:50:20;;;;;;;11.77;4.33;;;11.10;1.00;;;;;;8345328;28;20196;-66
2023/09/30 19:54:21;;;;;;;10.00;5.33;;;11.20;1.00;;;;;;8349046;28;20213;-66
2023/09/30 19:58:22;;;;;;;10.10;4.83;;;11.20;1.00;;;;;;8362325;28;20251;-66
2023/09/30 20:02:23;;;;;;;12.43;5.27;;;11.10;1.00;;;;;;8348102;28;20200;-66
2023/09/30 20:06:24;;;;;;;13.97;5.10;;;11.10;1.00;;;;;;8362024;28;20236;-65
2023/09/30 20:10:27;;;;;;;11.93;5.03;;;11.00;1.00;;;;;;8360852;28;20492;-65
2023/09/30 20:14:34;;;;;;;14.97;5.23;;;10.90;1.00;;;;;;8346248;28;20191;-66
2023/09/30 20:18:35;;;;;;;10.43;4.90;;;10.90;10.70;;;;;;8343620;28;20195;-65
2023/09/30 20:22:36;;;;;;;13.10;5.23;;;10.90;19.10;;;;;;8365616;28;20281;-71
2023/09/30 20:26:40;;;;;;;10.37;5.23;;;10.90;15.00;;;;;;8347645;28;20210;-71
2023/09/30 20:30:41;;;;;;;10.00;4.87;;;10.80;16.00;;;;;;8360693;28;20181;-66
2023/09/30 20:34:42;;;;;;;14.90;5.43;;;10.60;22.60;;;;;;8360321;28;20216;-66
2023/09/30 20:38:42;;;;;;;11.00;4.70;;;10.60;55.70;;;;;;8360030;28;20222;-67
2023/09/30 20:42:43;;;;;;;11.17;4.93;;;10.60;62.50;;;;;;8356638;28;20187;-65
2023/09/30 20:46:45;;;;;;;9.63;5.17;;;10.60;65.00;;;;;;8345297;28;20493;-66
2023/09/30 20:50:46;;;;;;;11.20;4.83;;;10.50;73.50;;;;;;8345466;28;20239;-66
2023/09/30 20:54:48;;;;;;;7.80;3.97;;;10.50;84.90;;;;;;8343845;28;20287;-65
2023/09/30 20:58:50;;;;;;;7.90;3.70;;;10.50;69.30;;;;;;8349578;28;20199;-65
2023/09/30 21:02:50;;;;;;;9.20;4.47;;;10.30;80.70;;;;;;8346323;28;20246;-67
2023/09/30 21:06:51;;;;;;;11.13;4.67;;;10.20;99.90;;;;;;8347161;28;20213;-66
2023/09/30 21:10:52;;;;;;;8.03;4.93;;;10.30;99.90;;;;;;8345540;28;20291;-66
2023/09/30 21:14:53;;;;;;;9.07;4.17;;;10.30;99.90;;;;;;8347809;28;20182;-64
2023/09/30 21:18:56;;;;;;;10.37;4.27;;;10.30;99.90;;;;;;8348613;28;20221;-66
2023/09/30 21:22:59;;;;;;;10.60;4.43;;;10.20;99.90;;;;;;8348866;28;20226;-67
2023/09/30 21:27:00;;;;;;;12.10;4.20;;;10.10;99.90;;;;;;8344498;28;20264;-65
2023/09/30 21:31:01;;;;;;;12.50;4.23;;;10.10;99.90;;;;;;8349437;28;20196;-65
2023/09/30 21:35:02;;;;;;;13.23;5.33;;;10.10;99.90;;;;;;8361795;28;20186;-65
2023/09/30 21:39:09;;;;;;;10.90;4.60;;;10.10;99.90;;;;;;8341850;28;20181;-66
2023/09/30 21:43:16;;;;;;;8.20;4.23;;;10.10;99.90;;;;;;8384975;28;20200;-71
2023/09/30 21:47:17;;;;;;;8.37;3.90;;;10.10;99.90;;;;;;8377876;28;20251;-71
2023/09/30 21:51:19;;;;;;;13.37;4.77;;;10.00;99.90;;;;;;8373274;28;20250;-72
2023/09/30 21:55:27;;;;;;;7.47;4.17;;;9.90;99.90;;;;;;8375856;28;20193;-72
2023/09/30 21:59:32;;;;;;;7.87;3.67;;;9.90;99.90;;;;;;8387964;28;20184;-71
2023/09/30 22:03:35;;;;;;;7.23;4.47;;;9.80;99.90;;;;;;8372096;28;20192;-71
2023/09/30 22:07:41;;;;;;;8.93;4.70;;;9.70;99.90;;;;;;8366643;28;20201;-72
2023/09/30 22:11:45;;;;;;;5.83;3.63;;;9.80;99.90;;;;;;8361606;28;20217;-71
2023/09/30 22:15:47;;;;;;;8.50;4.00;;;9.80;99.90;;;;;;8379256;28;20269;-71
2023/09/30 22:19:48;;;;;;;7.47;3.63;;;9.70;99.90;;;;;;8370146;28;20233;-71
2023/09/30 22:23:49;;;;;;;10.10;4.27;;;9.70;99.90;;;;;;8366549;28;20194;-71
2023/09/30 22:27:52;;;;;;;6.60;3.77;;;9.60;99.90;;;;;;8366912;28;20210;-71
2023/09/30 22:32:01;;;;;;;7.73;3.70;;;9.60;99.90;;;;;;8367169;28;20189;-72
2023/09/30 22:36:07;;;;;;;10.63;4.20;;;9.60;99.90;;;;;;8350110;28;20177;-71
2023/09/30 22:40:09;;;;;;;10.43;4.93;;;9.50;99.90;;;;;;8378433;28;20181;-71
2023/09/30 22:44:10;;;;;;;10.40;4.33;;;9.50;1.00;;;;;;8374941;28;20221;-72
2023/09/30 22:48:12;;;;;;;10.07;4.10;;;9.50;1.00;;;;;;8354612;28;20206;-72